sensor_id;sensor_type;location;lat;lon;timestamp;pressure;altitude;pressure_sealevel;temperature;humidity
60920;BME280;59039;52.108;19.942;2023-10-13T00:00:17;100641.82;;;12.01;85.26
60920;BME280;59039;52.108;19.942;2023-10-13T00:02:42;100636.31;;;12.02;85.18
60920;BME280;59039;52.108;19.942;2023-10-13T00:05:08;100632.48;;;12.02;85.26
60920;BME280;59039;52.108;19.942;2023-10-13T00:07:33;100633.02;;;12.03;84.92
60920;BME280;59039;52.108;19.942;2023-10-13T00:09:58;100634.20;;;12.05;85.23
60920;BME280;59039;52.108;19.942;2023-10-13T00:12:23;100631.15;;;12.06;85.17
60920;BME280;59039;52.108;19.942;2023-10-13T00:14:48;100636.73;;;12.06;84.95
60920;BME280;59039;52.108;19.942;2023-10-13T00:17:14;100631.25;;;12.07;84.91
60920;BME280;59039;52.108;19.942;2023-10-13T00:19:39;100640.81;;;12.07;85.13
60920;BME280;59039;52.108;19.942;2023-10-13T00:22:06;100641.81;;;12.08;85.07
60920;BME280;59039;52.108;19.942;2023-10-13T00:24:31;100643.25;;;12.08;84.97
60920;BME280;59039;52.108;19.942;2023-10-13T00:26:56;100645.23;;;12.08;84.89
60920;BME280;59039;52.108;19.942;2023-10-13T00:29:21;100648.92;;;12.09;84.77
60920;BME280;59039;52.108;19.942;2023-10-13T00:31:47;100660.41;;;12.11;84.85
60920;BME280;59039;52.108;19.942;2023-10-13T00:34:12;100662.98;;;12.12;85.00
60920;BME280;59039;52.108;19.942;2023-10-13T00:36:38;100664.91;;;12.13;85.36
60920;BME280;59039;52.108;19.942;2023-10-13T00:39:03;100665.96;;;12.14;85.55
60920;BME280;59039;52.108;19.942;2023-10-13T00:41:29;100669.20;;;12.14;85.18
60920;BME280;59039;52.108;19.942;2023-10-13T00:43:54;100664.73;;;12.15;84.85
60920;BME280;59039;52.108;19.942;2023-10-13T00:46:19;100661.90;;;12.16;85.09
60920;BME280;59039;52.108;19.942;2023-10-13T00:48:45;100661.79;;;12.15;85.03
60920;BME280;59039;52.108;19.942;2023-10-13T00:51:12;100655.61;;;12.16;85.06
60920;BME280;59039;52.108;19.942;2023-10-13T00:53:38;100652.77;;;12.17;84.68
60920;BME280;59039;52.108;19.942;2023-10-13T00:56:04;100649.77;;;12.17;85.31
60920;BME280;59039;52.108;19.942;2023-10-13T00:58:29;100652.88;;;12.17;85.33
60920;BME280;59039;52.108;19.942;2023-10-13T01:00:54;100651.65;;;12.17;85.28
60920;BME280;59039;52.108;19.942;2023-10-13T01:03:20;100653.65;;;12.17;85.52
60920;BME280;59039;52.108;19.942;2023-10-13T01:05:45;100652.50;;;12.17;85.48
60920;BME280;59039;52.108;19.942;2023-10-13T01:08:10;100652.41;;;12.18;85.48
60920;BME280;59039;52.108;19.942;2023-10-13T01:10:35;100656.79;;;12.20;85.15
60920;BME280;59039;52.108;19.942;2023-10-13T01:13:01;100662.48;;;12.23;84.98
60920;BME280;59039;52.108;19.942;2023-10-13T01:15:26;100663.69;;;12.23;85.46
60920;BME280;59039;52.108;19.942;2023-10-13T01:17:51;100667.41;;;12.24;85.52
60920;BME280;59039;52.108;19.942;2023-10-13T01:20:16;100666.31;;;12.24;85.61
60920;BME280;59039;52.108;19.942;2023-10-13T01:22:41;100669.10;;;12.23;85.59
60920;BME280;59039;52.108;19.942;2023-10-13T01:25:07;100668.70;;;12.24;85.51
60920;BME280;59039;52.108;19.942;2023-10-13T01:27:36;100669.39;;;12.24;85.59
60920;BME280;59039;52.108;19.942;2023-10-13T01:30:01;100668.40;;;12.25;85.65
60920;BME280;59039;52.108;19.942;2023-10-13T01:32:26;100671.95;;;12.24;85.49
60920;BME280;59039;52.108;19.942;2023-10-13T01:34:51;100673.44;;;12.24;85.69
60920;BME280;59039;52.108;19.942;2023-10-13T01:37:17;100670.80;;;12.23;85.71
60920;BME280;59039;52.108;19.942;2023-10-13T01:39:42;100666.44;;;12.23;85.61
60920;BME280;59039;52.108;19.942;2023-10-13T01:42:07;100666.03;;;12.24;85.84
60920;BME280;59039;52.108;19.942;2023-10-13T01:44:33;100658.60;;;12.23;85.80
60920;BME280;59039;52.108;19.942;2023-10-13T01:47:01;100664.26;;;12.23;85.51
60920;BME280;59039;52.108;19.942;2023-10-13T01:49:27;100667.66;;;12.22;85.76
60920;BME280;59039;52.108;19.942;2023-10-13T01:51:52;100667.14;;;12.21;85.68
60920;BME280;59039;52.108;19.942;2023-10-13T01:54:17;100667.32;;;12.21;85.78
60920;BME280;59039;52.108;19.942;2023-10-13T01:56:43;100672.77;;;12.21;85.86
60920;BME280;59039;52.108;19.942;2023-10-13T01:59:10;100670.36;;;12.22;85.89
60920;BME280;59039;52.108;19.942;2023-10-13T02:01:35;100658.71;;;12.22;86.07
60920;BME280;59039;52.108;19.942;2023-10-13T02:04:01;100662.80;;;12.23;86.03
60920;BME280;59039;52.108;19.942;2023-10-13T02:06:28;100667.19;;;12.23;85.98
60920;BME280;59039;52.108;19.942;2023-10-13T02:08:53;100663.98;;;12.22;86.19
60920;BME280;59039;52.108;19.942;2023-10-13T02:11:18;100661.30;;;12.22;86.13
60920;BME280;59039;52.108;19.942;2023-10-13T02:13:43;100660.11;;;12.23;86.11
60920;BME280;59039;52.108;19.942;2023-10-13T02:16:09;100657.83;;;12.24;85.71
60920;BME280;59039;52.108;19.942;2023-10-13T02:18:34;100662.02;;;12.25;85.33
60920;BME280;59039;52.108;19.942;2023-10-13T02:21:03;100664.69;;;12.26;85.52
60920;BME280;59039;52.108;19.942;2023-10-13T02:23:28;100661.67;;;12.27;85.89
60920;BME280;59039;52.108;19.942;2023-10-13T02:25:53;100661.20;;;12.26;85.70
60920;BME280;59039;52.108;19.942;2023-10-13T02:28:19;100662.21;;;12.27;85.66
60920;BME280;59039;52.108;19.942;2023-10-13T02:30:44;100658.78;;;12.27;85.63
60920;BME280;59039;52.108;19.942;2023-10-13T02:33:13;100660.52;;;12.27;85.36
60920;BME280;59039;52.108;19.942;2023-10-13T02:35:39;100661.70;;;12.28;85.39
60920;BME280;59039;52.108;19.942;2023-10-13T02:38:05;100662.74;;;12.29;85.10
60920;BME280;59039;52.108;19.942;2023-10-13T02:40:35;100661.92;;;12.30;85.09
60920;BME280;59039;52.108;19.942;2023-10-13T02:43:00;100660.86;;;12.29;85.42
60920;BME280;59039;52.108;19.942;2023-10-13T02:45:25;100662.57;;;12.29;85.22
60920;BME280;59039;52.108;19.942;2023-10-13T02:47:50;100664.63;;;12.28;84.97
60920;BME280;59039;52.108;19.942;2023-10-13T02:50:16;100663.34;;;12.28;84.77
60920;BME280;59039;52.108;19.942;2023-10-13T02:52:41;100667.02;;;12.28;84.76
60920;BME280;59039;52.108;19.942;2023-10-13T02:55:07;100665.11;;;12.27;84.99
60920;BME280;59039;52.108;19.942;2023-10-13T02:57:32;100663.23;;;12.26;84.70
60920;BME280;59039;52.108;19.942;2023-10-13T02:59:58;100663.48;;;12.25;84.48
60920;BME280;59039;52.108;19.942;2023-10-13T03:02:23;100662.22;;;12.23;85.05
60920;BME280;59039;52.108;19.942;2023-10-13T03:04:48;100660.90;;;12.22;84.98
60920;BME280;59039;52.108;19.942;2023-10-13T03:07:14;100660.98;;;12.22;84.98
60920;BME280;59039;52.108;19.942;2023-10-13T03:09:40;100661.08;;;12.21;84.73
60920;BME280;59039;52.108;19.942;2023-10-13T03:12:05;100663.75;;;12.19;84.55
60920;BME280;59039;52.108;19.942;2023-10-13T03:14:30;100667.42;;;12.19;85.11
60920;BME280;59039;52.108;19.942;2023-10-13T03:16:57;100669.94;;;12.17;85.25
60920;BME280;59039;52.108;19.942;2023-10-13T03:19:22;100672.04;;;12.16;85.45
60920;BME280;59039;52.108;19.942;2023-10-13T03:21:48;100670.71;;;12.15;85.44
60920;BME280;59039;52.108;19.942;2023-10-13T03:24:13;100671.60;;;12.15;85.42
60920;BME280;59039;52.108;19.942;2023-10-13T03:26:38;100674.30;;;12.16;85.93
60920;BME280;59039;52.108;19.942;2023-10-13T03:29:04;100675.25;;;12.15;85.88
60920;BME280;59039;52.108;19.942;2023-10-13T03:31:30;100679.50;;;12.16;85.65
60920;BME280;59039;52.108;19.942;2023-10-13T03:33:56;100675.96;;;12.17;85.89
60920;BME280;59039;52.108;19.942;2023-10-13T03:36:21;100675.73;;;12.17;86.18
60920;BME280;59039;52.108;19.942;2023-10-13T03:38:46;100678.29;;;12.17;86.01
60920;BME280;59039;52.108;19.942;2023-10-13T03:41:11;100668.95;;;12.16;86.23
60920;BME280;59039;52.108;19.942;2023-10-13T03:43:36;100667.83;;;12.17;86.21
60920;BME280;59039;52.108;19.942;2023-10-13T03:46:02;100663.61;;;12.17;86.14
60920;BME280;59039;52.108;19.942;2023-10-13T03:48:27;100656.80;;;12.18;85.86
60920;BME280;59039;52.108;19.942;2023-10-13T03:50:54;100659.53;;;12.19;85.65
60920;BME280;59039;52.108;19.942;2023-10-13T03:53:19;100658.42;;;12.20;85.36
60920;BME280;59039;52.108;19.942;2023-10-13T03:55:44;100658.39;;;12.20;85.44
60920;BME280;59039;52.108;19.942;2023-10-13T03:58:09;100661.31;;;12.20;85.15
60920;BME280;59039;52.108;19.942;2023-10-13T04:00:35;100659.73;;;12.19;85.04
60920;BME280;59039;52.108;19.942;2023-10-13T04:03:00;100676.68;;;12.17;85.03
60920;BME280;59039;52.108;19.942;2023-10-13T04:05:25;100677.13;;;12.16;85.24
60920;BME280;59039;52.108;19.942;2023-10-13T04:07:50;100669.11;;;12.15;85.58
60920;BME280;59039;52.108;19.942;2023-10-13T04:10:15;100673.35;;;12.14;85.45
60920;BME280;59039;52.108;19.942;2023-10-13T04:12:41;100678.94;;;12.15;85.42
60920;BME280;59039;52.108;19.942;2023-10-13T04:15:07;100682.14;;;12.14;85.67
60920;BME280;59039;52.108;19.942;2023-10-13T04:17:32;100674.75;;;12.13;85.85
60920;BME280;59039;52.108;19.942;2023-10-13T04:19:58;100670.81;;;12.12;85.64
60920;BME280;59039;52.108;19.942;2023-10-13T04:22:23;100665.45;;;12.13;85.44
60920;BME280;59039;52.108;19.942;2023-10-13T04:24:48;100660.83;;;12.14;85.41
60920;BME280;59039;52.108;19.942;2023-10-13T04:27:14;100664.20;;;12.15;85.37
60920;BME280;59039;52.108;19.942;2023-10-13T04:29:39;100665.12;;;12.15;85.44
60920;BME280;59039;52.108;19.942;2023-10-13T04:32:04;100664.77;;;12.15;85.71
60920;BME280;59039;52.108;19.942;2023-10-13T04:34:30;100661.82;;;12.14;85.42
60920;BME280;59039;52.108;19.942;2023-10-13T04:36:55;100655.23;;;12.12;85.19
60920;BME280;59039;52.108;19.942;2023-10-13T04:39:20;100660.80;;;12.10;85.14
60920;BME280;59039;52.108;19.942;2023-10-13T04:41:45;100661.65;;;12.09;85.14
60920;BME280;59039;52.108;19.942;2023-10-13T04:44:13;100665.45;;;12.08;85.05
60920;BME280;59039;52.108;19.942;2023-10-13T04:46:38;100661.80;;;12.06;85.29
60920;BME280;59039;52.108;19.942;2023-10-13T04:49:04;100663.30;;;12.06;85.00
60920;BME280;59039;52.108;19.942;2023-10-13T04:51:29;100661.20;;;12.05;85.06
60920;BME280;59039;52.108;19.942;2023-10-13T04:53:54;100656.64;;;12.04;85.08
60920;BME280;59039;52.108;19.942;2023-10-13T04:56:19;100648.21;;;12.03;85.24
60920;BME280;59039;52.108;19.942;2023-10-13T04:58:45;100646.09;;;12.02;85.50
60920;BME280;59039;52.108;19.942;2023-10-13T05:01:10;100647.98;;;12.01;85.33
60920;BME280;59039;52.108;19.942;2023-10-13T05:03:35;100652.34;;;12.01;85.32
60920;BME280;59039;52.108;19.942;2023-10-13T05:06:01;100655.72;;;12.00;85.42
60920;BME280;59039;52.108;19.942;2023-10-13T05:08:26;100658.23;;;12.00;85.59
60920;BME280;59039;52.108;19.942;2023-10-13T05:10:51;100660.80;;;12.00;85.55
60920;BME280;59039;52.108;19.942;2023-10-13T05:13:16;100661.54;;;12.00;85.27
60920;BME280;59039;52.108;19.942;2023-10-13T05:15:47;100667.80;;;12.01;85.23
60920;BME280;59039;52.108;19.942;2023-10-13T05:18:12;100669.16;;;12.00;85.34
60920;BME280;59039;52.108;19.942;2023-10-13T05:20:38;100674.58;;;12.00;85.38
60920;BME280;59039;52.108;19.942;2023-10-13T05:23:03;100672.60;;;12.00;85.25
60920;BME280;59039;52.108;19.942;2023-10-13T05:25:28;100667.27;;;12.01;85.10
60920;BME280;59039;52.108;19.942;2023-10-13T05:27:53;100678.23;;;12.00;85.13
60920;BME280;59039;52.108;19.942;2023-10-13T05:30:19;100680.20;;;12.00;85.24
60920;BME280;59039;52.108;19.942;2023-10-13T05:32:44;100681.83;;;12.01;85.19
60920;BME280;59039;52.108;19.942;2023-10-13T05:35:09;100686.50;;;12.01;85.15
60920;BME280;59039;52.108;19.942;2023-10-13T05:37:35;100686.73;;;12.01;85.04
60920;BME280;59039;52.108;19.942;2023-10-13T05:40:00;100686.73;;;12.00;84.99
60920;BME280;59039;52.108;19.942;2023-10-13T05:42:25;100686.35;;;12.00;84.79
60920;BME280;59039;52.108;19.942;2023-10-13T05:44:50;100683.84;;;12.00;84.79
60920;BME280;59039;52.108;19.942;2023-10-13T05:47:15;100683.67;;;12.00;85.06
60920;BME280;59039;52.108;19.942;2023-10-13T05:49:41;100685.13;;;12.00;85.02
60920;BME280;59039;52.108;19.942;2023-10-13T05:52:06;100685.65;;;12.01;85.15
60920;BME280;59039;52.108;19.942;2023-10-13T05:54:31;100689.77;;;12.01;85.15
60920;BME280;59039;52.108;19.942;2023-10-13T05:56:56;100684.55;;;12.01;85.21
60920;BME280;59039;52.108;19.942;2023-10-13T05:59:21;100679.44;;;12.01;84.88
60920;BME280;59039;52.108;19.942;2023-10-13T06:01:47;100683.33;;;12.00;84.93
60920;BME280;59039;52.108;19.942;2023-10-13T06:04:12;100687.27;;;12.01;85.02
60920;BME280;59039;52.108;19.942;2023-10-13T06:06:37;100687.73;;;12.00;84.99
60920;BME280;59039;52.108;19.942;2023-10-13T06:09:02;100687.31;;;12.00;85.14
60920;BME280;59039;52.108;19.942;2023-10-13T06:11:27;100692.42;;;12.00;85.20
60920;BME280;59039;52.108;19.942;2023-10-13T06:13:53;100694.85;;;12.01;85.12
60920;BME280;59039;52.108;19.942;2023-10-13T06:16:18;100698.98;;;12.02;84.97
60920;BME280;59039;52.108;19.942;2023-10-13T06:18:43;100700.84;;;12.01;85.26
60920;BME280;59039;52.108;19.942;2023-10-13T06:21:08;100704.42;;;12.02;85.11
60920;BME280;59039;52.108;19.942;2023-10-13T06:23:34;100701.41;;;12.01;85.06
60920;BME280;59039;52.108;19.942;2023-10-13T06:25:59;100705.77;;;12.01;85.13
60920;BME280;59039;52.108;19.942;2023-10-13T06:28:24;100708.56;;;12.00;85.10
60920;BME280;59039;52.108;19.942;2023-10-13T06:30:57;100705.63;;;11.99;84.92
60920;BME280;59039;52.108;19.942;2023-10-13T06:33:24;100705.06;;;11.97;85.11
60920;BME280;59039;52.108;19.942;2023-10-13T06:35:50;100703.48;;;11.97;85.02
60920;BME280;59039;52.108;19.942;2023-10-13T06:38:15;100707.34;;;11.96;85.01
60920;BME280;59039;52.108;19.942;2023-10-13T06:40:45;100708.05;;;11.97;85.21
60920;BME280;59039;52.108;19.942;2023-10-13T06:43:10;100705.33;;;11.96;85.27
60920;BME280;59039;52.108;19.942;2023-10-13T06:45:36;100707.88;;;11.96;85.29
60920;BME280;59039;52.108;19.942;2023-10-13T06:48:01;100710.95;;;11.97;85.21
60920;BME280;59039;52.108;19.942;2023-10-13T06:50:26;100717.41;;;11.96;85.19
60920;BME280;59039;52.108;19.942;2023-10-13T06:52:51;100719.79;;;11.95;85.18
60920;BME280;59039;52.108;19.942;2023-10-13T06:55:17;100719.60;;;11.94;85.31
60920;BME280;59039;52.108;19.942;2023-10-13T06:57:42;100719.49;;;11.93;85.23
60920;BME280;59039;52.108;19.942;2023-10-13T07:00:08;100722.71;;;11.91;85.22
60920;BME280;59039;52.108;19.942;2023-10-13T07:02:34;100721.23;;;11.90;85.36
60920;BME280;59039;52.108;19.942;2023-10-13T07:04:59;100723.83;;;11.89;85.44
60920;BME280;59039;52.108;19.942;2023-10-13T07:07:24;100720.21;;;11.89;85.52
60920;BME280;59039;52.108;19.942;2023-10-13T07:09:50;100719.19;;;11.88;85.64
60920;BME280;59039;52.108;19.942;2023-10-13T07:12:15;100719.05;;;11.88;85.57
60920;BME280;59039;52.108;19.942;2023-10-13T07:14:40;100711.80;;;11.88;85.68
60920;BME280;59039;52.108;19.942;2023-10-13T07:17:06;100707.95;;;11.88;85.56
60920;BME280;59039;52.108;19.942;2023-10-13T07:19:31;100714.00;;;11.88;85.57
60920;BME280;59039;52.108;19.942;2023-10-13T07:21:57;100714.02;;;11.87;85.91
60920;BME280;59039;52.108;19.942;2023-10-13T07:24:23;100712.89;;;11.88;85.75
60920;BME280;59039;52.108;19.942;2023-10-13T07:26:48;100709.52;;;11.87;85.95
60920;BME280;59039;52.108;19.942;2023-10-13T07:29:13;100711.64;;;11.87;86.18
60920;BME280;59039;52.108;19.942;2023-10-13T07:31:39;100710.21;;;11.89;86.17
60920;BME280;59039;52.108;19.942;2023-10-13T07:34:04;100703.45;;;11.90;85.99
60920;BME280;59039;52.108;19.942;2023-10-13T07:36:29;100698.16;;;11.90;85.96
60920;BME280;59039;52.108;19.942;2023-10-13T07:38:55;100695.23;;;11.90;85.99
60920;BME280;59039;52.108;19.942;2023-10-13T07:41:20;100691.56;;;11.91;86.38
60920;BME280;59039;52.108;19.942;2023-10-13T07:43:45;100691.25;;;11.92;86.46
60920;BME280;59039;52.108;19.942;2023-10-13T07:46:11;100688.11;;;11.93;86.47
60920;BME280;59039;52.108;19.942;2023-10-13T07:48:37;100686.00;;;11.94;86.29
60920;BME280;59039;52.108;19.942;2023-10-13T07:53:29;100681.02;;;11.96;86.59
60920;BME280;59039;52.108;19.942;2023-10-13T07:55:54;100683.79;;;11.98;86.43
60920;BME280;59039;52.108;19.942;2023-10-13T07:58:20;100682.23;;;11.99;86.50
60920;BME280;59039;52.108;19.942;2023-10-13T08:00:45;100677.27;;;12.01;86.61
60920;BME280;59039;52.108;19.942;2023-10-13T08:03:12;100676.45;;;12.02;86.36
60920;BME280;59039;52.108;19.942;2023-10-13T08:05:37;100671.80;;;12.03;86.46
60920;BME280;59039;52.108;19.942;2023-10-13T08:08:02;100671.89;;;12.04;86.71
60920;BME280;59039;52.108;19.942;2023-10-13T08:10:27;100668.59;;;12.05;86.89
60920;BME280;59039;52.108;19.942;2023-10-13T08:12:53;100669.70;;;12.07;86.85
60920;BME280;59039;52.108;19.942;2023-10-13T08:15:18;100666.72;;;12.10;87.07
60920;BME280;59039;52.108;19.942;2023-10-13T08:17:43;100671.54;;;12.12;86.85
60920;BME280;59039;52.108;19.942;2023-10-13T08:20:08;100666.85;;;12.14;87.13
60920;BME280;59039;52.108;19.942;2023-10-13T08:22:34;100669.52;;;12.16;87.54
60920;BME280;59039;52.108;19.942;2023-10-13T08:24:59;100669.35;;;12.19;87.57
60920;BME280;59039;52.108;19.942;2023-10-13T08:27:24;100672.52;;;12.24;87.73
60920;BME280;59039;52.108;19.942;2023-10-13T08:29:49;100669.71;;;12.28;87.56
60920;BME280;59039;52.108;19.942;2023-10-13T08:32:14;100668.02;;;12.32;87.94
60920;BME280;59039;52.108;19.942;2023-10-13T08:34:40;100667.36;;;12.37;87.84
60920;BME280;59039;52.108;19.942;2023-10-13T08:37:05;100666.39;;;12.41;87.79
60920;BME280;59039;52.108;19.942;2023-10-13T08:39:31;100662.98;;;12.44;88.15
60920;BME280;59039;52.108;19.942;2023-10-13T08:41:56;100660.20;;;12.48;87.99
60920;BME280;59039;52.108;19.942;2023-10-13T08:44:22;100662.64;;;12.52;88.18
60920;BME280;59039;52.108;19.942;2023-10-13T08:46:49;100660.05;;;12.56;88.31
60920;BME280;59039;52.108;19.942;2023-10-13T08:49:14;100657.30;;;12.60;88.11
60920;BME280;59039;52.108;19.942;2023-10-13T08:51:40;100656.36;;;12.64;88.04
60920;BME280;59039;52.108;19.942;2023-10-13T08:54:06;100651.95;;;12.68;88.20
60920;BME280;59039;52.108;19.942;2023-10-13T08:56:32;100649.69;;;12.72;88.24
60920;BME280;59039;52.108;19.942;2023-10-13T08:58:57;100646.75;;;12.76;88.45
60920;BME280;59039;52.108;19.942;2023-10-13T09:01:27;100644.10;;;12.80;88.26
60920;BME280;59039;52.108;19.942;2023-10-13T09:03:55;100636.59;;;12.84;88.46
60920;BME280;59039;52.108;19.942;2023-10-13T09:06:20;100632.50;;;12.88;88.43
60920;BME280;59039;52.108;19.942;2023-10-13T09:08:46;100620.94;;;12.92;88.65
60920;BME280;59039;52.108;19.942;2023-10-13T09:11:11;100620.20;;;12.98;88.61
60920;BME280;59039;52.108;19.942;2023-10-13T09:13:37;100621.64;;;13.03;88.39
60920;BME280;59039;52.108;19.942;2023-10-13T09:16:12;100620.09;;;13.07;88.31
60920;BME280;59039;52.108;19.942;2023-10-13T09:18:38;100617.41;;;13.11;88.25
60920;BME280;59039;52.108;19.942;2023-10-13T09:21:03;100617.25;;;13.16;88.36
60920;BME280;59039;52.108;19.942;2023-10-13T09:23:28;100611.33;;;13.21;88.30
60920;BME280;59039;52.108;19.942;2023-10-13T09:25:53;100608.91;;;13.25;88.55
60920;BME280;59039;52.108;19.942;2023-10-13T09:28:19;100611.30;;;13.29;88.46
60920;BME280;59039;52.108;19.942;2023-10-13T09:30:46;100614.55;;;13.35;88.67
60920;BME280;59039;52.108;19.942;2023-10-13T09:33:11;100621.17;;;13.39;88.85
60920;BME280;59039;52.108;19.942;2023-10-13T09:35:37;100626.38;;;13.45;88.77
60920;BME280;59039;52.108;19.942;2023-10-13T09:38:03;100627.54;;;13.51;88.90
60920;BME280;59039;52.108;19.942;2023-10-13T09:40:29;100620.41;;;13.56;88.88
60920;BME280;59039;52.108;19.942;2023-10-13T09:42:55;100617.76;;;13.62;89.03
60920;BME280;59039;52.108;19.942;2023-10-13T09:45:23;100615.13;;;13.67;89.07
60920;BME280;59039;52.108;19.942;2023-10-13T09:47:52;100613.12;;;13.74;89.02
60920;BME280;59039;52.108;19.942;2023-10-13T09:50:18;100613.08;;;13.79;89.08
60920;BME280;59039;52.108;19.942;2023-10-13T09:52:45;100608.13;;;13.85;89.25
60920;BME280;59039;52.108;19.942;2023-10-13T09:55:29;100609.73;;;13.90;89.22
60920;BME280;59039;52.108;19.942;2023-10-13T09:58:04;100609.86;;;13.97;89.41
60920;BME280;59039;52.108;19.942;2023-10-13T10:00:31;100603.92;;;14.03;89.30
60920;BME280;59039;52.108;19.942;2023-10-13T10:02:58;100597.65;;;14.08;89.29
60920;BME280;59039;52.108;19.942;2023-10-13T10:05:24;100595.35;;;14.14;89.35
60920;BME280;59039;52.108;19.942;2023-10-13T10:07:56;100590.66;;;14.20;88.96
60920;BME280;59039;52.108;19.942;2023-10-13T10:10:22;100587.37;;;14.27;89.11
60920;BME280;59039;52.108;19.942;2023-10-13T10:13:05;100578.66;;;14.33;89.12
60920;BME280;59039;52.108;19.942;2023-10-13T10:15:42;100577.95;;;14.39;89.03
60920;BME280;59039;52.108;19.942;2023-10-13T10:18:17;100573.41;;;14.44;89.08
60920;BME280;59039;52.108;19.942;2023-10-13T10:20:43;100567.46;;;14.49;88.98
60920;BME280;59039;52.108;19.942;2023-10-13T10:23:08;100566.10;;;14.55;89.09
60920;BME280;59039;52.108;19.942;2023-10-13T10:25:35;100565.91;;;14.61;88.94
60920;BME280;59039;52.108;19.942;2023-10-13T10:28:07;100558.19;;;14.69;88.96
60920;BME280;59039;52.108;19.942;2023-10-13T10:30:35;100550.42;;;14.75;89.24
60920;BME280;59039;52.108;19.942;2023-10-13T10:33:02;100544.23;;;14.81;89.21
60920;BME280;59039;52.108;19.942;2023-10-13T10:35:27;100535.34;;;14.88;89.24
60920;BME280;59039;52.108;19.942;2023-10-13T10:37:54;100540.21;;;14.95;89.14
60920;BME280;59039;52.108;19.942;2023-10-13T10:40:21;100539.62;;;15.04;89.19
60920;BME280;59039;52.108;19.942;2023-10-13T10:42:50;100533.27;;;15.11;89.11
60920;BME280;59039;52.108;19.942;2023-10-13T10:45:16;100526.29;;;15.18;89.08
60920;BME280;59039;52.108;19.942;2023-10-13T10:47:47;100520.30;;;15.27;88.90
60920;BME280;59039;52.108;19.942;2023-10-13T10:50:13;100517.69;;;15.35;88.83
60920;BME280;59039;52.108;19.942;2023-10-13T10:52:38;100515.04;;;15.42;88.83
60920;BME280;59039;52.108;19.942;2023-10-13T10:55:04;100513.98;;;15.49;88.80
60920;BME280;59039;52.108;19.942;2023-10-13T10:57:29;100506.13;;;15.55;88.78
60920;BME280;59039;52.108;19.942;2023-10-13T10:59:55;100502.10;;;15.63;88.68
60920;BME280;59039;52.108;19.942;2023-10-13T11:02:30;100495.35;;;15.69;88.47
60920;BME280;59039;52.108;19.942;2023-10-13T11:04:55;100490.44;;;15.76;88.29
60920;BME280;59039;52.108;19.942;2023-10-13T11:07:24;100484.41;;;15.82;88.33
60920;BME280;59039;52.108;19.942;2023-10-13T11:09:49;100480.63;;;15.89;88.26
60920;BME280;59039;52.108;19.942;2023-10-13T11:12:15;100478.67;;;15.96;88.21
60920;BME280;59039;52.108;19.942;2023-10-13T11:14:41;100477.29;;;16.03;88.18
60920;BME280;59039;52.108;19.942;2023-10-13T11:17:07;100475.77;;;16.10;88.01
60920;BME280;59039;52.108;19.942;2023-10-13T11:19:39;100473.99;;;16.15;87.81
60920;BME280;59039;52.108;19.942;2023-10-13T11:24:41;100466.98;;;16.29;87.39
60920;BME280;59039;52.108;19.942;2023-10-13T11:27:16;100460.52;;;16.35;87.13
60920;BME280;59039;52.108;19.942;2023-10-13T11:29:42;100463.48;;;16.41;86.90
60920;BME280;59039;52.108;19.942;2023-10-13T11:32:07;100458.38;;;16.46;87.03
60920;BME280;59039;52.108;19.942;2023-10-13T11:34:32;100456.84;;;16.53;86.97
60920;BME280;59039;52.108;19.942;2023-10-13T11:36:58;100454.00;;;16.60;86.57
60920;BME280;59039;52.108;19.942;2023-10-13T11:39:23;100446.79;;;16.66;86.34
60920;BME280;59039;52.108;19.942;2023-10-13T11:41:49;100443.10;;;16.72;86.12
60920;BME280;59039;52.108;19.942;2023-10-13T11:44:14;100441.73;;;16.79;85.84
60920;BME280;59039;52.108;19.942;2023-10-13T11:46:39;100437.84;;;16.85;85.65
60920;BME280;59039;52.108;19.942;2023-10-13T11:49:06;100428.14;;;16.90;85.31
60920;BME280;59039;52.108;19.942;2023-10-13T11:51:32;100426.64;;;16.95;85.15
60920;BME280;59039;52.108;19.942;2023-10-13T11:53:58;100427.44;;;17.00;84.74
60920;BME280;59039;52.108;19.942;2023-10-13T11:56:23;100427.73;;;17.05;84.44
60920;BME280;59039;52.108;19.942;2023-10-13T11:58:49;100429.31;;;17.10;84.30
60920;BME280;59039;52.108;19.942;2023-10-13T12:01:15;100430.54;;;17.15;83.95
60920;BME280;59039;52.108;19.942;2023-10-13T12:03:45;100423.34;;;17.20;83.87
60920;BME280;59039;52.108;19.942;2023-10-13T12:06:11;100421.56;;;17.25;83.69
60920;BME280;59039;52.108;19.942;2023-10-13T12:08:36;100421.49;;;17.29;83.19
60920;BME280;59039;52.108;19.942;2023-10-13T12:11:01;100421.10;;;17.34;83.12
60920;BME280;59039;52.108;19.942;2023-10-13T12:13:27;100419.06;;;17.38;82.55
60920;BME280;59039;52.108;19.942;2023-10-13T12:15:52;100415.85;;;17.42;82.34
60920;BME280;59039;52.108;19.942;2023-10-13T12:18:17;100407.51;;;17.46;82.09
60920;BME280;59039;52.108;19.942;2023-10-13T12:20:42;100407.66;;;17.49;81.95
60920;BME280;59039;52.108;19.942;2023-10-13T12:23:08;100411.73;;;17.51;81.56
60920;BME280;59039;52.108;19.942;2023-10-13T12:25:34;100412.09;;;17.54;81.61
60920;BME280;59039;52.108;19.942;2023-10-13T12:28:00;100411.42;;;17.58;81.34
60920;BME280;59039;52.108;19.942;2023-10-13T12:30:25;100413.27;;;17.60;81.04
60920;BME280;59039;52.108;19.942;2023-10-13T12:32:50;100415.31;;;17.63;81.05
60920;BME280;59039;52.108;19.942;2023-10-13T12:35:16;100407.13;;;17.65;81.06
60920;BME280;59039;52.108;19.942;2023-10-13T12:37:41;100408.24;;;17.68;80.99